Time;durP1;ratioP1;P1;durP2;ratioP2;P2;SDS_P1;SDS_P2;PMS_P1;PMS_P2;Temp;Humidity;BMP_temperature;BMP_pressure;BME280_temperature;BME280_humidity;BME280_pressure;Samples;Min_cycle;Max_cycle;Signal;HPM_P1;HPM_P2
2022/06/30 00:01:12;;;;;;;5.75;3.40;;;;;;;26.66;40.88;100872.00;5086366;28;20488;-67
2022/06/30 00:03:39;;;;;;;5.32;3.35;;;;;;;26.62;41.36;100869.03;5089130;28;20417;-67
2022/06/30 00:06:06;;;;;;;5.55;3.40;;;;;;;26.59;41.56;100877.69;5086581;28;20918;-67
2022/06/30 00:08:33;;;;;;;5.67;3.20;;;;;;;26.56;41.64;100877.41;5085005;28;20524;-67
2022/06/30 00:11:06;;;;;;;4.70;3.20;;;;;;;26.50;41.41;100879.34;5088549;28;20423;-67
2022/06/30 00:13:34;;;;;;;4.22;3.30;;;;;;;26.49;41.49;100875.81;5081320;28;20926;-67
2022/06/30 00:16:01;;;;;;;5.43;3.13;;;;;;;26.48;41.45;100874.16;5087455;28;20447;-67
2022/06/30 00:18:30;;;;;;;5.30;3.28;;;;;;;26.45;41.61;100869.28;5084988;28;20493;-67
2022/06/30 00:20:57;;;;;;;5.35;3.33;;;;;;;26.42;41.79;100864.38;5089250;28;20530;-67
2022/06/30 00:23:25;;;;;;;4.38;3.10;;;;;;;26.39;41.58;100864.13;5084206;28;20505;-68
2022/06/30 00:25:52;;;;;;;3.57;3.07;;;;;;;26.35;41.81;100866.56;5088467;28;20854;-68
2022/06/30 00:28:19;;;;;;;4.77;3.33;;;;;;;26.32;41.92;100865.19;5088201;28;20500;-67
2022/06/30 00:30:46;;;;;;;3.58;2.95;;;;;;;26.29;41.65;100870.38;5084796;28;20421;-67
2022/06/30 00:33:14;;;;;;;5.18;3.20;;;;;;;26.26;41.81;100871.72;5085500;28;20446;-68
2022/06/30 00:35:42;;;;;;;3.90;3.10;;;;;;;26.23;42.03;100872.25;5075217;28;20997;-67
2022/06/30 00:38:09;;;;;;;4.78;3.20;;;;;;;26.19;42.08;100856.78;5081354;28;20495;-67
2022/06/30 00:40:36;;;;;;;5.15;3.10;;;;;;;26.15;41.90;100851.06;5085678;28;20872;-67
2022/06/30 00:43:03;;;;;;;3.67;3.10;;;;;;;26.12;41.95;100852.41;5087581;28;20500;-66
2022/06/30 00:45:30;;;;;;;4.60;3.20;;;;;;;26.09;41.84;100849.44;5086699;28;20484;-67
2022/06/30 00:47:58;;;;;;;4.13;3.20;;;;;;;26.06;42.03;100853.50;5088303;28;20574;-67
2022/06/30 00:50:25;;;;;;;3.72;3.15;;;;;;;26.05;41.80;100857.31;5081564;28;20490;-67
2022/06/30 00:52:54;;;;;;;3.85;3.15;;;;;;;26.04;41.95;100857.59;5081034;28;20505;-67
2022/06/30 00:55:21;;;;;;;3.72;3.40;;;;;;;26.01;42.05;100852.69;5076269;28;20504;-67
2022/06/30 00:57:49;;;;;;;5.07;3.30;;;;;;;26.01;41.86;100852.69;5080024;28;20995;-67
2022/06/30 01:00:16;;;;;;;3.20;3.00;;;;;;;25.98;42.31;100856.75;5082761;28;20437;-68
2022/06/30 01:02:44;;;;;;;5.22;3.10;;;;;;;25.93;42.27;100846.72;5078298;28;20409;-67
2022/06/30 01:05:11;;;;;;;3.88;3.10;;;;;;;25.92;42.23;100850.47;5087686;28;20404;-67
2022/06/30 01:07:39;;;;;;;6.07;2.95;;;;;;;25.89;42.25;100844.75;5088392;28;20492;-68
2022/06/30 01:12:52;;;;;;;3.83;3.13;;;;;;;25.78;42.34;100848.56;5074992;28;20404;-68
2022/06/30 01:15:21;;;;;;;3.55;3.25;;;;;;;25.73;42.39;100852.91;5087606;28;20417;-67
2022/06/30 01:17:51;;;;;;;4.17;2.90;;;;;;;25.69;42.43;100849.06;5088268;28;20413;-67
2022/06/30 01:20:24;;;;;;;8.57;3.42;;;;;;;25.66;42.38;100851.50;5087902;28;20487;-67
2022/06/30 01:22:53;;;;;;;4.47;3.30;;;;;;;25.59;42.85;100850.94;5085440;28;20492;-67
2022/06/30 01:25:20;;;;;;;4.85;3.00;;;;;;;25.58;42.79;100857.47;5086770;28;20977;-67
2022/06/30 01:27:47;;;;;;;4.40;2.95;;;;;;;25.54;42.83;100868.03;5087790;28;21006;-67
2022/06/30 01:30:14;;;;;;;3.40;3.10;;;;;;;25.50;42.91;100864.25;5083997;28;20423;-67
2022/06/30 01:32:41;;;;;;;3.50;3.20;;;;;;;25.48;43.00;100866.38;5088690;28;20607;-67
2022/06/30 01:35:09;;;;;;;4.00;3.35;;;;;;;25.45;43.11;100864.22;5087829;28;20420;-67
2022/06/30 01:37:50;;;;;;;4.20;3.20;;;;;;;25.41;43.23;100863.94;5088099;28;20512;-67
2022/06/30 01:40:20;;;;;;;4.32;3.22;;;;;;;25.36;43.13;100859.28;5086357;28;20486;-67
2022/06/30 01:42:47;;;;;;;4.03;3.50;;;;;;;25.33;43.03;100861.72;5079914;28;20418;-67
2022/06/30 01:45:15;;;;;;;4.22;3.38;;;;;;;25.30;43.25;100867.66;5089074;28;20505;-67
2022/06/30 01:47:42;;;;;;;5.88;3.50;;;;;;;25.26;43.02;100864.66;5092130;28;20414;-67
2022/06/30 01:50:14;;;;;;;4.03;3.47;;;;;;;25.23;43.10;100869.75;5091235;28;21430;-67
2022/06/30 01:52:40;;;;;;;3.50;3.20;;;;;;;25.22;43.05;100868.16;5086730;28;20417;-68
2022/06/30 01:55:08;;;;;;;6.93;3.37;;;;;;;25.21;42.99;100864.63;5090664;28;20427;-66
2022/06/30 01:57:38;;;;;;;3.60;3.30;;;;;;;25.19;43.12;100873.03;5084384;28;20979;-67
2022/06/30 02:00:07;;;;;;;3.30;3.00;;;;;;;25.17;43.22;100861.63;5088049;28;20516;-66
2022/06/30 02:03:01;;;;;;;3.58;3.28;;;;;;;25.14;43.28;100864.88;5088445;27;20939;-68
2022/06/30 02:05:28;;;;;;;3.50;3.03;;;;;;;25.12;43.26;100863.47;5084362;28;20428;-68
2022/06/30 02:07:55;;;;;;;4.70;3.22;;;;;;;25.10;43.27;100869.19;5084819;28;20410;-68
2022/06/30 02:10:25;;;;;;;3.87;3.17;;;;;;;25.08;43.37;100868.59;5085444;28;20414;-68
2022/06/30 02:12:52;;;;;;;4.53;3.67;;;;;;;25.06;43.41;100865.34;5078601;28;20420;-68
2022/06/30 02:15:21;;;;;;;6.78;3.50;;;;;;;25.05;43.48;100869.16;5084519;28;20409;-68
2022/06/30 02:17:50;;;;;;;4.00;3.50;;;;;;;25.04;43.53;100872.13;5083452;28;20501;-68
2022/06/30 02:20:23;;;;;;;4.53;3.53;;;;;;;25.04;43.48;100877.56;5085191;28;20497;-68
2022/06/30 02:22:51;;;;;;;3.95;3.42;;;;;;;25.03;43.61;100876.75;5084192;28;20422;-68
2022/06/30 02:25:19;;;;;;;4.95;3.50;;;;;;;24.99;43.52;100873.75;5083979;28;20509;-68
2022/06/30 02:27:45;;;;;;;3.95;3.60;;;;;;;24.99;43.49;100884.59;5085318;28;20979;-68
2022/06/30 02:30:13;;;;;;;4.82;3.47;;;;;;;24.97;43.73;100884.03;5079861;28;20454;-68
2022/06/30 02:32:40;;;;;;;3.83;3.42;;;;;;;24.96;43.53;100879.69;5078088;28;20979;-68
2022/06/30 02:35:08;;;;;;;4.23;3.40;;;;;;;24.94;43.64;100887.28;5084549;28;20494;-68
2022/06/30 02:37:37;;;;;;;4.63;3.70;;;;;;;24.90;43.68;100891.59;5084860;28;20406;-68
2022/06/30 02:40:05;;;;;;;4.63;3.80;;;;;;;24.89;43.72;100889.94;5084394;28;20420;-68
2022/06/30 02:42:33;;;;;;;4.60;3.58;;;;;;;24.87;43.80;100892.09;5078661;28;20430;-68
2022/06/30 02:45:00;;;;;;;5.95;3.80;;;;;;;24.85;43.83;100886.13;5084519;28;20537;-68
2022/06/30 02:47:31;;;;;;;7.95;3.58;;;;;;;24.84;43.79;100879.06;5080580;28;20500;-68
2022/06/30 02:49:59;;;;;;;4.13;3.43;;;;;;;24.83;43.72;100876.59;5084059;28;20425;-68
2022/06/30 02:52:25;;;;;;;4.80;3.53;;;;;;;24.83;43.84;100882.03;5080879;28;20406;-68
2022/06/30 02:54:54;;;;;;;5.35;3.85;;;;;;;24.80;44.00;100884.19;5085076;28;20493;-68
2022/06/30 02:57:21;;;;;;;5.30;3.60;;;;;;;24.80;43.94;100886.09;5084127;28;20493;-68
2022/06/30 02:59:48;;;;;;;5.13;3.70;;;;;;;24.81;44.08;100890.41;5084529;28;20496;-68
2022/06/30 03:02:14;;;;;;;6.72;3.60;;;;;;;24.84;44.05;100889.09;5098434;28;20517;-68
2022/06/30 03:04:41;;;;;;;5.20;3.60;;;;;;;24.85;44.01;100890.72;5102775;28;20497;-68
2022/06/30 03:07:08;;;;;;;5.25;3.65;;;;;;;24.86;43.93;100898.59;5098246;28;20993;-68
2022/06/30 03:09:36;;;;;;;5.10;4.07;;;;;;;24.88;43.74;100893.72;5104630;28;20792;-68
2022/06/30 03:12:05;;;;;;;4.53;3.78;;;;;;;24.93;43.73;100890.22;5104622;28;20419;-67
2022/06/30 03:14:32;;;;;;;6.28;3.67;;;;;;;24.96;43.67;100882.41;5088376;28;20512;-68
2022/06/30 03:16:59;;;;;;;7.05;4.00;;;;;;;24.99;43.40;100881.88;5085487;28;20447;-68
2022/06/30 03:19:26;;;;;;;4.28;3.88;;;;;;;25.04;43.55;100882.97;5086258;28;20922;-68
2022/06/30 03:21:54;;;;;;;6.27;4.10;;;;;;;25.06;43.34;100891.66;5087993;28;20544;-68
2022/06/30 03:24:21;;;;;;;6.10;3.90;;;;;;;25.12;43.31;100888.72;5088113;28;20416;-68
2022/06/30 03:26:49;;;;;;;5.80;3.97;;;;;;;25.16;43.24;100895.25;5089578;28;20501;-68
2022/06/30 03:29:17;;;;;;;5.50;3.88;;;;;;;25.18;43.13;100889.56;5088827;28;20941;-68
2022/06/30 03:31:44;;;;;;;5.45;3.80;;;;;;;25.19;43.11;100892.03;5090451;28;20500;-69
2022/06/30 03:34:11;;;;;;;4.72;4.00;;;;;;;25.23;42.93;100900.44;5089426;28;20413;-67
2022/06/30 03:36:38;;;;;;;11.07;4.20;;;;;;;25.27;42.92;100898.88;5088534;28;20420;-68
2022/06/30 03:39:06;;;;;;;8.57;5.18;;;;;;;25.35;43.01;100902.97;5088792;28;20892;-68
2022/06/30 03:41:33;;;;;;;9.93;4.13;;;;;;;25.42;42.91;100906.25;5089272;28;20467;-67
2022/06/30 03:44:00;;;;;;;6.25;3.90;;;;;;;25.50;42.59;100902.22;5088931;28;20470;-68
2022/06/30 03:46:28;;;;;;;6.80;3.72;;;;;;;25.54;42.40;100912.28;5089461;28;20568;-68
2022/06/30 03:48:55;;;;;;;6.07;4.20;;;;;;;25.60;42.42;100910.41;5088750;28;20790;-67
2022/06/30 03:51:22;;;;;;;5.47;3.80;;;;;;;25.71;42.22;100908.53;5089538;28;20532;-69
2022/06/30 03:53:49;;;;;;;8.23;3.75;;;;;;;25.78;41.97;100905.56;5087645;28;20423;-68
2022/06/30 03:56:16;;;;;;;4.55;3.70;;;;;;;25.86;41.91;100914.03;5089362;28;20488;-68
2022/06/30 03:58:43;;;;;;;5.63;3.88;;;;;;;25.94;41.50;100910.78;5088761;28;20953;-68
2022/06/30 04:01:10;;;;;;;7.73;4.50;;;;;;;26.03;41.69;100900.22;5082135;28;20950;-68
2022/06/30 04:03:38;;;;;;;6.35;3.72;;;;;;;26.13;41.41;100904.88;5073735;28;21011;-69
2022/06/30 04:06:06;;;;;;;6.97;4.10;;;;;;;26.25;40.89;100912.75;5073642;28;20411;-68
2022/06/30 04:08:33;;;;;;;5.53;3.93;;;;;;;26.37;40.87;100902.44;5073528;28;20497;-68
2022/06/30 04:10:59;;;;;;;6.50;3.97;;;;;;;26.48;40.76;100912.22;5073613;28;20419;-68
2022/06/30 04:13:26;;;;;;;6.10;4.20;;;;;;;26.59;40.58;100914.94;5073639;28;20544;-67
2022/06/30 04:15:55;;;;;;;6.40;4.20;;;;;;;26.67;40.29;100917.16;5073998;28;20411;-68
2022/06/30 04:18:22;;;;;;;5.35;3.97;;;;;;;26.79;40.02;100917.66;5074837;28;20867;-68
2022/06/30 04:20:50;;;;;;;6.83;4.33;;;;;;;26.91;39.76;100920.13;5073406;28;20432;-69
2022/06/30 04:23:17;;;;;;;7.20;4.50;;;;;;;27.03;39.96;100917.09;5074742;28;20433;-68
2022/06/30 04:25:44;;;;;;;7.28;4.68;;;;;;;27.14;39.71;100923.34;5073858;28;20417;-69
2022/06/30 04:28:11;;;;;;;5.75;4.18;;;;;;;27.27;39.62;100912.69;5075511;28;20494;-67
2022/06/30 04:33:22;;;;;;;6.47;4.40;;;;;;;27.43;39.03;100920.81;5074478;28;20413;-68
2022/06/30 04:35:51;;;;;;;6.93;4.50;;;;;;;27.54;38.73;100919.69;5071978;28;20429;-69
2022/06/30 04:38:18;;;;;;;8.15;4.75;;;;;;;27.60;38.61;100926.75;5074457;28;20876;-69
2022/06/30 04:43:29;;;;;;;12.45;5.13;;;;;;;27.77;38.64;100931.03;5076555;28;20432;-68
2022/06/30 04:45:56;;;;;;;8.50;4.57;;;;;;;27.84;38.15;100937.78;5073507;28;20490;-68
2022/06/30 04:48:23;;;;;;;6.43;4.65;;;;;;;27.93;38.66;100932.59;5072822;28;20415;-68
2022/06/30 04:50:52;;;;;;;7.70;4.57;;;;;;;28.04;38.35;100933.34;5073562;28;20535;-68
2022/06/30 04:53:19;;;;;;;6.20;4.68;;;;;;;28.14;38.35;100935.19;5074946;28;20414;-69
2022/06/30 04:55:46;;;;;;;8.25;5.15;;;;;;;28.19;37.61;100930.50;5071407;28;20422;-69
2022/06/30 04:58:13;;;;;;;7.45;4.78;;;;;;;28.27;37.71;100926.38;5073056;28;20419;-69
2022/06/30 05:00:40;;;;;;;8.70;5.20;;;;;;;28.31;37.81;100932.09;5071714;28;20966;-69
2022/06/30 05:03:07;;;;;;;9.15;5.95;;;;;;;28.40;37.98;100933.91;5071377;28;20850;-67
2022/06/30 05:05:33;;;;;;;7.80;5.90;;;;;;;28.45;38.01;100941.25;5069856;28;20816;-69
2022/06/30 05:08:02;;;;;;;7.03;5.80;;;;;;;28.50;38.04;100935.72;5067976;28;20411;-69
2022/06/30 05:10:29;;;;;;;8.23;6.13;;;;;;;28.56;37.82;100929.19;5069764;28;20835;-69
2022/06/30 05:12:56;;;;;;;8.15;5.60;;;;;;;28.62;37.90;100934.59;5069642;28;20487;-68
2022/06/30 05:15:23;;;;;;;8.20;5.40;;;;;;;28.69;38.07;100935.88;5071180;28;20498;-69
2022/06/30 05:17:49;;;;;;;7.55;5.13;;;;;;;28.77;37.88;100929.00;5069149;28;20421;-68
2022/06/30 05:20:16;;;;;;;5.65;4.63;;;;;;;28.85;37.54;100939.28;5066999;28;20446;-68
2022/06/30 05:22:43;;;;;;;7.43;4.70;;;;;;;28.97;37.32;100942.44;5070922;28;20432;-67
2022/06/30 05:27:56;;;;;;;8.55;5.40;;;;;;;29.20;37.21;100950.16;5066463;28;20939;-67
2022/06/30 05:30:23;;;;;;;7.45;5.10;;;;;;;29.21;37.34;100952.59;5067257;28;20452;-67
2022/06/30 05:32:50;;;;;;;7.00;5.20;;;;;;;29.22;37.17;100954.22;5071500;28;20501;-67
2022/06/30 05:35:17;;;;;;;6.75;5.10;;;;;;;29.27;37.15;100959.63;5077709;28;20975;-67
2022/06/30 05:37:44;;;;;;;6.50;5.78;;;;;;;29.16;37.25;100958.91;5078454;28;20486;-63
2022/06/30 05:40:13;;;;;;;6.03;5.43;;;;;;;29.26;37.41;100955.28;5082806;28;20441;-63
2022/06/30 05:42:40;;;;;;;9.02;5.53;;;;;;;29.29;37.57;100959.34;5077062;28;20458;-64
2022/06/30 05:45:08;;;;;;;7.05;5.60;;;;;;;29.32;37.56;100950.56;5072702;28;20411;-66
2022/06/30 05:47:34;;;;;;;13.25;6.10;;;;;;;29.42;37.78;100958.63;5071547;28;20968;-62
2022/06/30 05:50:01;;;;;;;7.47;5.57;;;;;;;29.56;37.36;100966.94;5073399;28;20852;-64
2022/06/30 05:52:28;;;;;;;7.03;6.00;;;;;;;29.67;37.28;100964.91;5079114;28;20441;-63
2022/06/30 05:54:56;;;;;;;11.85;6.20;;;;;;;29.74;36.97;100968.91;5073872;28;20501;-64
2022/06/30 05:57:25;;;;;;;7.10;6.40;;;;;;;29.82;36.88;100969.38;5070419;28;20409;-66
2022/06/30 05:59:52;;;;;;;9.55;6.15;;;;;;;29.90;37.12;100968.72;5067383;28;20406;-63
2022/06/30 06:02:19;;;;;;;8.23;6.27;;;;;;;29.92;37.11;100966.50;5068451;28;20435;-61
2022/06/30 06:04:45;;;;;;;8.68;6.60;;;;;;;29.93;36.84;100968.16;5068186;28;20406;-62
2022/06/30 06:07:12;;;;;;;7.18;6.30;;;;;;;30.13;36.70;100968.97;5068476;28;20841;-62
2022/06/30 06:09:39;;;;;;;9.93;6.40;;;;;;;30.25;36.60;100967.41;5086731;28;20492;-62
2022/06/30 06:12:07;;;;;;;8.85;6.63;;;;;;;30.47;36.30;100964.09;5085195;28;20406;-63
2022/06/30 06:14:35;;;;;;;8.15;6.65;;;;;;;30.77;35.92;100964.69;5083070;28;20490;-62
2022/06/30 06:17:02;;;;;;;7.55;6.85;;;;;;;31.02;35.68;100965.38;5078888;28;20439;-62
2022/06/30 06:19:29;;;;;;;7.72;6.22;;;;;;;31.26;35.29;100976.16;5075988;28;20484;-65
2022/06/30 06:21:56;;;;;;;7.45;6.40;;;;;;;31.29;35.20;100972.00;5031323;28;20405;-66
2022/06/30 06:24:23;;;;;;;7.63;6.20;;;;;;;31.57;34.71;100964.63;5076152;28;21932;-64
2022/06/30 06:26:50;;;;;;;8.40;6.40;;;;;;;31.92;34.55;100965.75;5067920;28;20505;-69
2022/06/30 06:29:17;;;;;;;7.68;6.47;;;;;;;32.09;33.72;100964.31;5079873;28;20488;-68
2022/06/30 06:31:45;;;;;;;10.67;6.77;;;;;;;32.33;34.00;100956.63;5072609;28;20883;-66
2022/06/30 06:34:12;;;;;;;6.90;6.20;;;;;;;32.72;33.07;100959.84;5087173;28;20481;-64
2022/06/30 06:36:39;;;;;;;9.25;6.32;;;;;;;32.96;32.59;100953.97;5086765;28;20421;-66
2022/06/30 06:39:06;;;;;;;7.45;6.40;;;;;;;33.40;31.89;100952.22;5087311;28;20500;-70
2022/06/30 06:41:33;;;;;;;8.35;6.00;;;;;;;33.56;31.54;100952.59;5087832;28;20421;-64
2022/06/30 06:44:00;;;;;;;11.20;6.53;;;;;;;33.86;31.39;100953.66;5087987;28;20865;-65
2022/06/30 06:46:27;;;;;;;7.22;5.80;;;;;;;34.45;30.69;100957.88;5074227;28;20577;-65
2022/06/30 06:48:59;;;;;;;7.85;6.00;;;;;;;34.67;29.68;100965.91;5083856;28;20411;-66
2022/06/30 06:51:26;;;;;;;6.70;6.10;;;;;;;34.87;29.08;100960.88;5084268;28;20499;-66
2022/06/30 06:53:54;;;;;;;6.75;6.10;;;;;;;35.31;28.78;100955.19;5085944;28;20415;-64
2022/06/30 06:56:22;;;;;;;10.00;6.00;;;;;;;35.28;28.32;100964.97;5082474;28;20978;-64
2022/06/30 06:58:49;;;;;;;6.57;5.65;;;;;;;35.26;27.98;100958.97;5077113;28;20506;-66
2022/06/30 07:01:16;;;;;;;6.30;5.70;;;;;;;34.74;28.88;100967.41;5091442;28;20492;-63
2022/06/30 07:03:43;;;;;;;6.70;5.68;;;;;;;34.58;28.78;100967.88;5089711;28;20424;-64
2022/06/30 07:06:12;;;;;;;6.35;5.80;;;;;;;34.37;29.68;100964.19;5071684;28;20429;-63
2022/06/30 07:08:39;;;;;;;7.00;6.22;;;;;;;34.28;30.17;100964.19;5085334;28;20405;-65
2022/06/30 07:11:05;;;;;;;7.00;5.97;;;;;;;34.40;29.95;100955.28;5085344;28;20410;-63
2022/06/30 07:13:35;;;;;;;6.93;6.25;;;;;;;34.19;30.05;100966.94;5083695;28;20987;-64
2022/06/30 07:16:02;;;;;;;7.50;6.40;;;;;;;33.80;30.67;100954.09;5086023;28;20411;-64
2022/06/30 07:18:29;;;;;;;8.77;7.22;;;;;;;33.68;31.34;100952.00;5082455;28;22071;-65
2022/06/30 07:20:56;;;;;;;8.95;6.95;;;;;;;33.79;30.88;100956.06;5087705;28;20522;-66
2022/06/30 07:23:25;;;;;;;9.20;7.80;;;;;;;33.93;30.74;100961.41;5074493;28;20423;-64
2022/06/30 07:25:52;;;;;;;7.78;6.95;;;;;;;33.80;31.66;100962.34;5083422;28;20474;-64
2022/06/30 07:28:18;;;;;;;7.80;6.90;;;;;;;33.72;31.49;100956.53;5077080;28;20404;-65
2022/06/30 07:30:45;;;;;;;10.45;6.95;;;;;;;33.83;31.54;100950.72;5080568;28;20415;-63
2022/06/30 07:33:12;;;;;;;14.65;7.20;;;;;;;33.70;32.16;100947.78;5073053;28;20928;-65
2022/06/30 07:35:39;;;;;;;7.57;6.75;;;;;;;33.47;31.88;100944.31;5086912;28;20492;-64
2022/06/30 07:38:06;;;;;;;7.40;6.70;;;;;;;33.59;31.23;100943.72;5078856;28;20407;-66
2022/06/30 07:40:34;;;;;;;7.00;6.30;;;;;;;33.71;31.63;100948.63;5085607;28;20490;-62
2022/06/30 07:43:01;;;;;;;7.65;6.60;;;;;;;33.77;31.76;100941.03;5075164;28;20946;-64
2022/06/30 07:45:28;;;;;;;8.60;6.70;;;;;;;33.83;31.85;100951.53;5084565;28;20931;-66
2022/06/30 07:47:55;;;;;;;7.70;7.00;;;;;;;33.37;32.28;100941.06;5087582;28;20409;-65
2022/06/30 07:50:22;;;;;;;7.15;6.45;;;;;;;33.46;32.16;100944.66;5076500;28;20407;-63
2022/06/30 07:52:49;;;;;;;7.30;6.40;;;;;;;33.55;32.71;100939.16;5084681;28;20428;-63
2022/06/30 07:55:16;;;;;;;7.82;7.03;;;;;;;33.24;32.70;100931.81;5086450;28;20508;-64
2022/06/30 07:57:47;;;;;;;9.73;7.47;;;;;;;33.30;32.93;100938.78;5090420;28;20488;-63
2022/06/30 08:00:14;;;;;;;7.53;6.68;;;;;;;33.19;33.09;100927.28;5075762;28;20432;-63
2022/06/30 08:02:42;;;;;;;7.95;6.45;;;;;;;33.28;32.76;100939.09;5089823;28;20488;-63
2022/06/30 08:05:10;;;;;;;8.40;7.03;;;;;;;33.25;33.01;100934.25;5084634;28;20497;-63
2022/06/30 08:07:37;;;;;;;7.78;6.80;;;;;;;33.29;32.49;100935.22;5078972;28;20477;-64
2022/06/30 08:10:06;;;;;;;8.52;6.45;;;;;;;33.34;33.22;100934.28;5075384;28;20940;-64
2022/06/30 08:12:33;;;;;;;7.82;7.03;;;;;;;33.17;33.52;100929.53;5077227;28;20420;-67
2022/06/30 08:15:02;;;;;;;7.78;6.90;;;;;;;33.09;33.56;100931.09;5090168;28;20413;-66
2022/06/30 08:17:30;;;;;;;7.38;6.68;;;;;;;33.01;33.62;100926.38;5083928;28;20497;-65
2022/06/30 08:19:57;;;;;;;6.95;6.30;;;;;;;33.04;33.90;100931.22;5070111;28;20798;-63
2022/06/30 08:22:24;;;;;;;9.90;6.93;;;;;;;33.06;33.49;100926.25;5088112;28;20796;-64
2022/06/30 08:24:52;;;;;;;8.23;6.95;;;;;;;33.22;33.66;100925.81;5072019;28;20427;-67
2022/06/30 08:27:19;;;;;;;8.15;6.97;;;;;;;33.36;33.96;100936.72;5068995;28;20417;-63
2022/06/30 08:29:46;;;;;;;8.93;6.68;;;;;;;33.26;33.68;100937.78;5083850;28;20508;-63
2022/06/30 08:32:14;;;;;;;7.15;6.55;;;;;;;33.24;33.18;100923.56;5069762;28;20597;-64
2022/06/30 08:34:41;;;;;;;7.10;6.47;;;;;;;33.28;33.44;100925.38;5083595;28;20493;-68
2022/06/30 08:37:09;;;;;;;8.50;6.70;;;;;;;33.36;33.31;100933.97;5075765;28;20919;-65
2022/06/30 08:42:21;;;;;;;7.53;6.63;;;;;;;33.09;33.89;100936.56;5069190;28;20402;-64
2022/06/30 08:45:13;;;;;;;7.43;6.68;;;;;;;32.49;34.69;100939.81;5069647;28;20426;-64
2022/06/30 08:47:38;;;;;;;6.95;6.25;;;;;;;32.85;34.55;100928.72;5089115;28;20416;-64
2022/06/30 08:50:08;;;;;;;8.63;6.75;;;;;;;32.88;34.16;100936.34;5089073;28;20409;-64
2022/06/30 08:52:41;;;;;;;7.30;6.60;;;;;;;33.04;34.40;100939.47;5081867;28;20419;-63
2022/06/30 08:55:10;;;;;;;8.73;6.35;;;;;;;33.11;33.41;100936.25;5083835;28;20533;-63
2022/06/30 08:57:39;;;;;;;7.65;6.32;;;;;;;33.16;33.69;100927.13;5089289;28;20491;-63
2022/06/30 09:00:08;;;;;;;6.82;6.15;;;;;;;33.30;33.63;100930.56;5075603;28;20845;-64
2022/06/30 09:02:35;;;;;;;8.43;6.53;;;;;;;33.37;33.69;100930.06;5066399;28;20540;-63
2022/06/30 09:05:04;;;;;;;8.45;6.47;;;;;;;33.25;33.63;100933.44;5081869;28;20504;-64
2022/06/30 09:07:31;;;;;;;7.03;6.32;;;;;;;33.21;33.41;100930.53;5082912;28;20697;-65
2022/06/30 09:09:58;;;;;;;7.60;5.70;;;;;;;33.38;31.57;100935.25;5069098;28;20410;-64
2022/06/30 09:12:26;;;;;;;7.53;6.07;;;;;;;33.45;31.28;100921.84;5071309;28;20982;-64
2022/06/30 09:14:54;;;;;;;7.40;6.17;;;;;;;33.50;31.91;100920.91;5079429;28;20468;-65
2022/06/30 09:17:23;;;;;;;6.18;5.32;;;;;;;33.37;30.97;100921.81;5068409;28;21028;-66
2022/06/30 09:19:55;;;;;;;7.35;5.38;;;;;;;33.58;30.74;100917.34;5077031;28;20445;-64
2022/06/30 09:22:28;;;;;;;6.40;5.25;;;;;;;33.68;30.51;100913.53;5087686;28;20431;-65
2022/06/30 09:25:03;;;;;;;8.70;5.72;;;;;;;33.76;31.10;100904.44;5072534;28;20583;-64
2022/06/30 09:27:32;;;;;;;6.63;5.90;;;;;;;33.93;31.01;100908.38;5077721;28;20529;-63
2022/06/30 09:30:04;;;;;;;7.30;6.55;;;;;;;33.96;31.05;100904.94;5082539;28;20417;-65
2022/06/30 09:32:31;;;;;;;8.23;6.30;;;;;;;34.09;31.27;100898.47;5079646;28;20813;-63
2022/06/30 09:35:09;;;;;;;7.57;5.30;;;;;;;34.06;30.48;100899.13;5086230;28;20490;-64
2022/06/30 09:37:38;;;;;;;7.53;5.10;;;;;;;34.11;29.97;100893.47;5068452;28;20410;-67
2022/06/30 09:40:08;;;;;;;6.80;5.50;;;;;;;34.27;29.92;100897.34;5068436;28;20414;-64
2022/06/30 09:42:41;;;;;;;7.50;4.90;;;;;;;34.29;29.31;100894.28;5068485;28;20864;-64
2022/06/30 09:45:10;;;;;;;8.43;5.40;;;;;;;34.32;29.14;100896.34;5070500;28;20509;-64
2022/06/30 09:47:38;;;;;;;7.80;5.00;;;;;;;34.30;29.64;100893.13;5088696;28;20493;-67
2022/06/30 09:50:07;;;;;;;7.63;5.00;;;;;;;34.31;29.92;100893.97;5074061;28;20486;-67
2022/06/30 09:52:34;;;;;;;7.05;4.90;;;;;;;34.12;29.48;100886.00;5088784;28;20874;-63
2022/06/30 09:55:06;;;;;;;6.77;4.67;;;;;;;34.14;29.60;100887.31;5088151;28;20417;-63
2022/06/30 09:57:40;;;;;;;6.37;4.87;;;;;;;34.22;29.04;100894.75;5075103;28;20420;-64
2022/06/30 10:00:08;;;;;;;7.15;4.70;;;;;;;34.05;29.04;100889.25;5087970;28;20409;-63
2022/06/30 10:02:39;;;;;;;7.07;4.40;;;;;;;34.01;29.14;100880.84;5074538;28;20911;-64
2022/06/30 10:05:08;;;;;;;7.57;4.32;;;;;;;34.08;28.42;100881.16;5088172;28;20436;-66
2022/06/30 10:07:37;;;;;;;5.13;4.43;;;;;;;34.10;28.28;100886.31;5088050;28;20422;-68
2022/06/30 10:10:08;;;;;;;6.60;4.57;;;;;;;34.16;28.50;100887.78;5076223;28;20407;-63
2022/06/30 10:12:35;;;;;;;4.65;3.67;;;;;;;34.21;26.91;100873.88;5086546;28;20523;-63
2022/06/30 10:15:02;;;;;;;4.60;4.10;;;;;;;34.22;26.61;100870.00;5088521;28;20437;-68
2022/06/30 10:17:31;;;;;;;5.32;4.18;;;;;;;34.16;27.84;100878.72;5073960;28;20495;-66
2022/06/30 10:19:59;;;;;;;6.85;4.80;;;;;;;34.13;28.21;100862.88;5088148;28;20409;-66
2022/06/30 10:22:28;;;;;;;5.70;4.55;;;;;;;34.18;27.82;100857.25;5087697;28;20791;-65
2022/06/30 10:24:57;;;;;;;8.77;4.43;;;;;;;34.21;27.81;100862.88;5077758;28;20506;-66
2022/06/30 10:27:27;;;;;;;6.05;4.18;;;;;;;34.35;27.29;100848.94;5092326;28;20938;-64
2022/06/30 10:29:58;;;;;;;5.00;4.10;;;;;;;34.41;27.51;100844.88;5091740;28;20899;-63
2022/06/30 10:32:49;;;;;;;5.13;4.20;;;;;;;34.35;27.77;100842.63;5092514;28;20407;-67
2022/06/30 10:35:22;;;;;;;4.63;3.43;;;;;;;34.32;26.29;100844.06;5077895;28;20408;-65
2022/06/30 10:37:55;;;;;;;5.68;3.30;;;;;;;34.39;26.01;100840.81;5091812;28;20420;-64
2022/06/30 10:40:34;;;;;;;6.20;3.45;;;;;;;34.44;26.03;100840.66;5086242;28;20438;-65
2022/06/30 10:43:03;;;;;;;5.38;3.42;;;;;;;34.37;25.99;100838.41;5071837;28;20414;-66
2022/06/30 10:45:59;;;;;;;4.53;3.20;;;;;;;34.49;26.35;100832.22;5085607;28;20422;-64
2022/06/30 10:48:28;;;;;;;5.47;3.30;;;;;;;34.49;26.34;100834.97;5073034;28;20796;-64
2022/06/30 10:50:56;;;;;;;3.90;3.20;;;;;;;34.47;25.28;100823.47;5091806;28;20424;-64
2022/06/30 10:53:52;;;;;;;4.70;3.10;;;;;;;34.46;25.07;100832.88;5073471;28;20409;-65
2022/06/30 10:56:20;;;;;;;4.20;2.80;;;;;;;34.47;25.02;100820.72;5073972;28;20442;-64
2022/06/30 10:59:11;;;;;;;6.10;3.25;;;;;;;34.49;25.62;100817.66;5088273;28;20409;-68
2022/06/30 11:01:40;;;;;;;4.25;3.22;;;;;;;34.53;24.51;100815.84;5079172;28;20498;-64
2022/06/30 11:04:11;;;;;;;6.53;3.47;;;;;;;34.45;25.38;100821.06;5090400;28;20436;-65
2022/06/30 11:07:09;;;;;;;4.57;3.30;;;;;;;34.52;24.70;100811.47;5079726;28;20881;-64
2022/06/30 11:10:21;;;;;;;6.30;3.22;;;;;;;34.49;25.18;100809.41;5079425;28;20424;-66
2022/06/30 11:13:06;;;;;;;4.70;2.90;;;;;;;34.57;24.58;100808.53;5088238;28;20413;-63
2022/06/30 11:16:01;;;;;;;4.03;2.92;;;;;;;34.56;24.31;100802.22;5075722;28;20446;-65
2022/06/30 11:18:28;;;;;;;3.40;3.00;;;;;;;34.67;24.12;100797.97;5068199;28;20497;-64
2022/06/30 11:20:56;;;;;;;4.20;3.00;;;;;;;34.75;24.47;100801.03;5073534;28;20492;-63
2022/06/30 11:23:24;;;;;;;5.72;2.85;;;;;;;34.74;24.07;100800.22;5081732;28;20417;-66
2022/06/30 11:28:40;;;;;;;4.22;2.90;;;;;;;34.68;23.91;100785.00;5077512;28;20396;-63
2022/06/30 11:34:02;;;;;;;4.75;2.90;;;;;;;34.81;24.40;100780.44;5097628;27;2040732;-64
2022/06/30 11:36:30;;;;;;;3.57;3.00;;;;;;;34.82;24.15;100782.03;5145831;27;20487;-64
2022/06/30 11:38:58;;;;;;;3.92;2.80;;;;;;;34.94;23.92;100771.13;5134753;27;20543;-65
2022/06/30 11:44:12;;;;;;;4.25;2.63;;;;;;;35.03;24.24;100771.06;5147569;27;20549;-64
2022/06/30 11:46:54;;;;;;;5.28;2.97;;;;;;;35.06;23.68;100769.56;5147335;27;20504;-64
2022/06/30 11:49:24;;;;;;;4.05;2.92;;;;;;;35.03;24.00;100771.84;5147334;27;21070;-64
2022/06/30 11:51:51;;;;;;;5.35;2.90;;;;;;;35.00;23.77;100775.28;5146914;27;20925;-64
2022/06/30 11:54:22;;;;;;;5.57;2.83;;;;;;;34.99;23.68;100767.38;5147405;27;20480;-67